Time;durP1;ratioP1;P1;durP2;ratioP2;P2;SDS_P1;SDS_P2;PMS_P1;PMS_P2;Temp;Humidity;BMP_temperature;BMP_pressure;BME280_temperature;BME280_humidity;BME280_pressure;Samples;Min_cycle;Max_cycle;Signal;HPM_P1;HPM_P2
2021/09/30 00:01:39;;;;;;;1.40;1.30;;;9.10;99.90;;;;;;4832564;29;20443;-89
2021/09/30 00:04:05;;;;;;;1.47;0.93;;;9.00;99.90;;;;;;4835861;29;20197;-90
2021/09/30 00:06:31;;;;;;;6.40;1.47;;;8.90;99.90;;;;;;4843046;29;20280;-90
2021/09/30 00:08:57;;;;;;;1.13;1.03;;;8.80;99.90;;;;;;4845340;29;20202;-89
2021/09/30 00:11:28;;;;;;;3.03;1.90;;;8.90;99.90;;;;;;4837224;29;20209;-90
2021/09/30 00:14:46;;;;;;;2.63;1.43;;;8.80;99.90;;;;;;4831945;29;20485;-90
2021/09/30 00:33:41;;;;;;;2.00;1.27;;;8.60;99.90;;;;;;4843322;29;20457;-89
2021/09/30 00:41:47;;;;;;;2.30;1.20;;;8.50;99.90;;;;;;4848464;29;20493;-89
2021/09/30 02:19:34;;;;;;;2.47;1.30;;;7.80;99.90;;;;;;6271653;22;20387;-90
2021/09/30 02:31:18;;;;;;;1.50;1.40;;;7.80;99.90;;;;;;6271614;22;20519;-91
2021/09/30 02:58:14;;;;;;;1.37;1.27;;;7.50;99.90;;;;;;6284412;22;20425;-90
2021/09/30 03:00:43;;;;;;;1.90;1.40;;;7.40;99.90;;;;;;6275064;22;20389;-91
2021/09/30 03:03:12;;;;;;;1.47;1.30;;;7.50;99.90;;;;;;6275425;22;20430;-91
2021/09/30 03:05:40;;;;;;;2.37;1.20;;;7.60;99.90;;;;;;6274564;22;20499;-90
2021/09/30 03:08:06;;;;;;;3.47;1.40;;;7.50;99.90;;;;;;6274866;22;20989;-91
2021/09/30 03:10:32;;;;;;;1.70;1.17;;;7.40;99.90;;;;;;6274664;22;20434;-91
2021/09/30 03:12:59;;;;;;;3.00;1.10;;;7.30;99.90;;;;;;6274631;22;20164;-91
2021/09/30 03:23:22;;;;;;;2.93;1.40;;;7.10;99.90;;;;;;6302982;22;20540;-90
2021/09/30 03:25:50;;;;;;;4.60;1.20;;;6.90;99.90;;;;;;6273877;22;20437;-90
2021/09/30 03:28:22;;;;;;;0.90;0.90;;;6.80;99.90;;;;;;6274885;22;20688;-91
2021/09/30 03:30:48;;;;;;;1.83;1.17;;;6.80;99.90;;;;;;6275316;22;20773;-90
2021/09/30 03:33:23;;;;;;;1.13;1.13;;;6.80;99.90;;;;;;6275519;22;20389;-90
2021/09/30 03:36:03;;;;;;;3.13;1.37;;;6.90;99.90;;;;;;6301164;22;20407;-91
2021/09/30 03:38:29;;;;;;;1.43;1.33;;;7.20;99.90;;;;;;6282252;22;20414;-91
2021/09/30 03:40:55;;;;;;;3.67;1.20;;;7.20;99.90;;;;;;6278580;22;20396;-91
2021/09/30 03:43:21;;;;;;;1.50;1.17;;;7.20;99.90;;;;;;6274284;22;20454;-91
2021/09/30 03:45:49;;;;;;;2.33;1.40;;;7.20;99.90;;;;;;6273891;22;20185;-90
2021/09/30 03:48:22;;;;;;;1.53;1.20;;;7.20;99.90;;;;;;6274965;22;20154;-91
2021/09/30 04:01:07;;;;;;;6.03;1.60;;;7.20;99.90;;;;;;6301905;22;20392;-90
2021/09/30 04:03:32;;;;;;;1.53;1.37;;;7.30;99.90;;;;;;6274604;22;20765;-90
2021/09/30 04:05:58;;;;;;;2.27;1.63;;;7.30;99.90;;;;;;6274086;22;20660;-91
2021/09/30 04:08:24;;;;;;;5.07;1.60;;;7.20;99.90;;;;;;6274523;22;20198;-90
2021/09/30 04:10:49;;;;;;;5.50;3.00;;;7.20;99.90;;;;;;6274180;22;20237;-91
2021/09/30 04:13:15;;;;;;;2.27;1.70;;;7.10;99.90;;;;;;6273608;22;20191;-91
2021/09/30 04:15:41;;;;;;;1.87;1.70;;;7.00;99.90;;;;;;6273800;22;20244;-91
2021/09/30 04:18:06;;;;;;;1.43;1.30;;;6.90;99.90;;;;;;6274826;22;20162;-90
2021/09/30 04:20:33;;;;;;;1.53;1.43;;;6.80;99.90;;;;;;6273900;22;20174;-91
2021/09/30 04:23:18;;;;;;;3.30;1.20;;;7.00;99.90;;;;;;6275167;22;20280;-90
2021/09/30 04:25:45;;;;;;;7.10;1.80;;;6.90;99.90;;;;;;6273554;22;20432;-90
2021/09/30 04:28:11;;;;;;;1.63;1.53;;;6.80;99.90;;;;;;6273946;22;20431;-91
2021/09/30 04:30:37;;;;;;;1.70;1.60;;;6.80;99.90;;;;;;6274021;22;20951;-91
2021/09/30 04:33:02;;;;;;;2.00;1.50;;;6.80;99.90;;;;;;6274549;22;20232;-90
2021/09/30 04:35:28;;;;;;;2.60;1.50;;;6.80;99.90;;;;;;6273497;22;20630;-90
2021/09/30 04:37:53;;;;;;;3.83;1.20;;;6.90;99.90;;;;;;6274573;22;20154;-91
2021/09/30 04:40:19;;;;;;;1.73;1.27;;;7.00;99.90;;;;;;6274219;22;20626;-90
2021/09/30 04:42:45;;;;;;;1.50;1.40;;;6.90;99.90;;;;;;6274070;22;20592;-91
2021/09/30 04:45:10;;;;;;;1.70;1.60;;;6.90;99.90;;;;;;6300665;22;20226;-90
2021/09/30 04:47:36;;;;;;;1.67;1.30;;;6.80;99.90;;;;;;6275139;22;20193;-90
2021/09/30 04:50:03;;;;;;;1.73;1.30;;;6.70;99.90;;;;;;6274601;22;20158;-91
2021/09/30 04:52:34;;;;;;;3.47;1.20;;;6.90;99.90;;;;;;6275202;22;20165;-91
2021/09/30 04:55:00;;;;;;;2.20;1.50;;;6.90;99.90;;;;;;6273261;22;20408;-91
2021/09/30 04:57:25;;;;;;;1.50;1.30;;;6.80;99.90;;;;;;6275176;22;20408;-91
2021/09/30 04:59:51;;;;;;;1.23;0.80;;;6.70;99.90;;;;;;6274867;22;20633;-91
2021/09/30 05:02:17;;;;;;;2.00;1.80;;;6.80;99.90;;;;;;6274216;22;20173;-91
2021/09/30 05:04:42;;;;;;;1.47;1.37;;;6.70;99.90;;;;;;6274615;22;20157;-91
2021/09/30 05:07:08;;;;;;;1.47;1.37;;;6.80;99.90;;;;;;6276532;22;20220;-90
2021/09/30 05:09:34;;;;;;;1.90;1.40;;;6.70;99.90;;;;;;6286081;22;20187;-90
2021/09/30 05:12:03;;;;;;;1.90;1.17;;;6.70;99.90;;;;;;6275689;22;20162;-91
2021/09/30 05:14:28;;;;;;;2.43;1.43;;;6.60;99.90;;;;;;6274523;22;20424;-90
2021/09/30 05:16:54;;;;;;;1.63;1.50;;;6.60;99.90;;;;;;6274662;22;20434;-91
2021/09/30 05:19:20;;;;;;;1.47;1.30;;;6.50;99.90;;;;;;6274073;22;20157;-91
2021/09/30 05:21:47;;;;;;;1.93;1.37;;;6.50;99.90;;;;;;6274200;22;20161;-90
2021/09/30 05:24:12;;;;;;;3.23;1.60;;;6.50;99.90;;;;;;6273976;22;20400;-90
2021/09/30 05:26:38;;;;;;;1.13;1.00;;;6.60;99.90;;;;;;6274159;22;20761;-91
2021/09/30 05:29:06;;;;;;;1.57;1.10;;;6.60;99.90;;;;;;6274663;22;20907;-90
2021/09/30 05:31:32;;;;;;;1.23;1.20;;;6.60;99.90;;;;;;6275219;22;20215;-90
2021/09/30 05:33:58;;;;;;;2.23;1.33;;;6.70;99.90;;;;;;6275895;22;20411;-90
2021/09/30 05:36:24;;;;;;;1.67;1.33;;;6.70;99.90;;;;;;6273281;22;20467;-91
2021/09/30 05:38:51;;;;;;;1.33;1.23;;;6.70;99.90;;;;;;6276443;22;20441;-90
2021/09/30 05:41:17;;;;;;;3.70;1.77;;;6.60;99.90;;;;;;6275284;22;20521;-91
2021/09/30 05:43:49;;;;;;;2.30;1.90;;;6.70;99.90;;;;;;6275235;22;20440;-91
2021/09/30 05:46:17;;;;;;;2.63;1.93;;;6.80;99.90;;;;;;6274910;22;20443;-90
2021/09/30 05:48:43;;;;;;;1.63;1.53;;;6.70;99.90;;;;;;6276230;22;20892;-90
2021/09/30 05:51:10;;;;;;;1.80;1.50;;;6.80;99.90;;;;;;6275001;22;20396;-90
2021/09/30 05:53:36;;;;;;;1.40;1.30;;;6.80;99.90;;;;;;6275222;22;20161;-91
2021/09/30 05:56:02;;;;;;;3.70;1.60;;;6.70;99.90;;;;;;6274808;22;20716;-90
2021/09/30 05:58:28;;;;;;;1.97;1.37;;;6.80;99.90;;;;;;6276582;22;20177;-90
2021/09/30 06:01:39;;;;;;;3.87;1.40;;;6.90;99.90;;;;;;6274688;22;20529;-91
2021/09/30 06:04:43;;;;;;;2.50;1.33;;;6.90;99.90;;;;;;6302071;22;20634;-91
2021/09/30 06:14:23;;;;;;;2.20;1.40;;;7.30;99.90;;;;;;6302501;22;20430;-90
2021/09/30 06:16:50;;;;;;;1.40;1.30;;;7.30;99.90;;;;;;6275927;22;20447;-91
2021/09/30 06:19:22;;;;;;;1.70;1.60;;;7.40;99.90;;;;;;6275707;22;20700;-91
2021/09/30 06:21:50;;;;;;;1.60;1.50;;;7.50;99.90;;;;;;6275376;22;20394;-90
2021/09/30 06:24:18;;;;;;;3.07;1.50;;;7.60;99.90;;;;;;6273600;22;20422;-91
2021/09/30 06:26:51;;;;;;;1.57;1.07;;;7.60;99.90;;;;;;6274998;22;20879;-90
2021/09/30 06:29:17;;;;;;;2.97;1.50;;;7.60;99.90;;;;;;6276160;22;20389;-90
2021/09/30 06:31:43;;;;;;;2.50;1.40;;;7.70;99.90;;;;;;6275710;22;20483;-91
2021/09/30 06:34:09;;;;;;;2.10;1.40;;;7.80;99.90;;;;;;6275293;22;20440;-90
2021/09/30 06:36:42;;;;;;;1.70;1.27;;;7.90;99.90;;;;;;6275583;22;20397;-90
2021/09/30 06:39:07;;;;;;;1.53;1.20;;;7.90;99.90;;;;;;6286833;22;20161;-89
2021/09/30 06:41:33;;;;;;;4.27;1.33;;;7.90;99.90;;;;;;6275578;22;20709;-90
2021/09/30 06:43:59;;;;;;;2.40;1.10;;;8.00;99.90;;;;;;6274565;22;20256;-91
2021/09/30 06:46:25;;;;;;;1.30;1.20;;;8.20;99.90;;;;;;6275270;22;20192;-91
2021/09/30 06:48:58;;;;;;;3.77;1.40;;;8.30;99.90;;;;;;6275003;22;20178;-92
2021/09/30 06:51:24;;;;;;;1.90;1.27;;;8.30;99.90;;;;;;6275535;22;20869;-91
2021/09/30 06:53:51;;;;;;;1.20;1.10;;;8.40;99.90;;;;;;6274869;22;20478;-90
2021/09/30 06:56:26;;;;;;;1.33;1.23;;;8.50;99.90;;;;;;6274885;22;20483;-90
2021/09/30 06:58:54;;;;;;;2.50;1.10;;;8.60;99.90;;;;;;6274782;22;20780;-91
2021/09/30 07:01:24;;;;;;;4.20;1.40;;;8.60;99.90;;;;;;6274841;22;20399;-91
2021/09/30 07:03:51;;;;;;;1.77;1.60;;;8.70;99.90;;;;;;6275148;22;20433;-90
2021/09/30 07:06:25;;;;;;;3.13;1.30;;;8.80;99.90;;;;;;6301633;22;20431;-90
2021/09/30 07:08:51;;;;;;;1.60;1.50;;;8.90;99.90;;;;;;6275095;22;20465;-90
2021/09/30 07:11:17;;;;;;;2.77;1.10;;;9.00;99.90;;;;;;6274688;22;20387;-90
2021/09/30 07:13:43;;;;;;;2.87;1.43;;;9.00;99.90;;;;;;6274787;22;20720;-91
2021/09/30 07:16:09;;;;;;;2.13;1.70;;;9.10;99.90;;;;;;6274263;22;20388;-90
2021/09/30 07:18:35;;;;;;;5.40;2.07;;;9.30;99.90;;;;;;6248711;22;20403;-91
2021/09/30 07:21:00;;;;;;;2.37;1.27;;;9.50;99.90;;;;;;6274199;22;20511;-90
2021/09/30 07:23:34;;;;;;;2.20;1.17;;;9.50;99.90;;;;;;6274200;22;20158;-90
2021/09/30 07:26:00;;;;;;;1.40;1.23;;;9.60;99.90;;;;;;6274489;22;20197;-91
2021/09/30 07:28:28;;;;;;;3.10;1.80;;;9.70;99.90;;;;;;6302099;22;20752;-90
2021/09/30 07:30:54;;;;;;;2.87;1.63;;;9.90;99.90;;;;;;6274124;22;20400;-90
2021/09/30 07:33:20;;;;;;;1.40;1.30;;;10.00;99.90;;;;;;6274097;22;20403;-91
2021/09/30 07:35:53;;;;;;;1.73;1.47;;;10.10;99.90;;;;;;6273517;22;20772;-89
2021/09/30 07:38:19;;;;;;;3.27;1.30;;;10.10;99.90;;;;;;6275145;22;20722;-90
2021/09/30 07:40:45;;;;;;;2.23;1.87;;;10.20;99.90;;;;;;6274629;22;20392;-89
2021/09/30 07:43:11;;;;;;;2.60;1.90;;;10.20;99.90;;;;;;6274617;22;20415;-90
2021/09/30 07:45:37;;;;;;;2.10;1.70;;;10.20;99.90;;;;;;6273267;22;20439;-89
2021/09/30 07:48:03;;;;;;;2.10;1.90;;;10.40;99.90;;;;;;6274129;22;20215;-90
2021/09/30 07:50:28;;;;;;;2.17;1.63;;;10.50;99.90;;;;;;6274069;22;20396;-90
2021/09/30 07:52:57;;;;;;;2.03;1.50;;;10.70;99.90;;;;;;6274323;22;20469;-90
2021/09/30 07:55:23;;;;;;;2.07;1.20;;;10.80;99.90;;;;;;6273546;22;20162;-90
2021/09/30 07:57:49;;;;;;;1.27;1.17;;;11.00;99.90;;;;;;6274294;22;20418;-90
2021/09/30 08:00:14;;;;;;;1.90;1.23;;;11.00;99.90;;;;;;6274376;22;20401;-90
2021/09/30 08:02:40;;;;;;;1.70;1.20;;;11.20;99.90;;;;;;6274628;22;20166;-91
2021/09/30 08:05:07;;;;;;;1.07;0.97;;;11.40;99.90;;;;;;6274334;22;20166;-91
2021/09/30 08:07:32;;;;;;;1.30;1.10;;;11.60;99.90;;;;;;6277146;22;20157;-90
2021/09/30 08:09:58;;;;;;;5.17;1.47;;;11.60;99.90;;;;;;6278346;22;20397;-90
2021/09/30 08:12:25;;;;;;;1.60;1.37;;;11.60;99.90;;;;;;6274865;22;20173;-91
2021/09/30 08:14:51;;;;;;;3.03;0.97;;;11.60;99.90;;;;;;6273305;22;20161;-90
2021/09/30 08:17:17;;;;;;;1.60;1.10;;;11.80;99.90;;;;;;6274475;22;20392;-89
2021/09/30 08:19:43;;;;;;;1.27;1.10;;;12.10;99.90;;;;;;6275023;22;20392;-90
2021/09/30 08:22:09;;;;;;;2.53;0.87;;;12.30;99.90;;;;;;6273992;22;20887;-90
2021/09/30 08:24:35;;;;;;;3.40;1.10;;;12.30;99.90;;;;;;6273121;22;20403;-90
2021/09/30 08:27:01;;;;;;;1.23;1.00;;;12.30;99.90;;;;;;6273659;22;20566;-90
2021/09/30 08:29:28;;;;;;;3.53;1.30;;;12.60;99.90;;;;;;6273632;22;20158;-90
2021/09/30 08:31:57;;;;;;;2.40;0.80;;;12.80;99.90;;;;;;6273105;22;20729;-90
2021/09/30 08:34:23;;;;;;;1.83;1.10;;;13.00;99.90;;;;;;6273473;22;20384;-90
2021/09/30 08:36:54;;;;;;;2.83;1.00;;;13.00;99.90;;;;;;6273758;22;20157;-90
2021/09/30 08:39:19;;;;;;;4.20;1.13;;;13.10;99.90;;;;;;6273532;22;20245;-90
2021/09/30 08:41:45;;;;;;;4.93;1.40;;;13.00;99.90;;;;;;6273538;22;20431;-90
2021/09/30 08:44:13;;;;;;;3.43;1.13;;;13.10;99.90;;;;;;6300482;22;20205;-91
2021/09/30 08:46:38;;;;;;;2.20;1.50;;;13.30;99.90;;;;;;6273512;22;20435;-90
2021/09/30 08:49:04;;;;;;;1.40;0.90;;;13.70;99.90;;;;;;6273613;22;20237;-90
2021/09/30 08:51:31;;;;;;;3.40;1.37;;;13.60;99.90;;;;;;6273205;22;20725;-90
2021/09/30 08:54:05;;;;;;;3.20;1.17;;;13.90;99.90;;;;;;6273617;22;20392;-91
2021/09/30 08:56:33;;;;;;;2.80;1.13;;;13.80;99.90;;;;;;6273535;22;20408;-91
2021/09/30 08:59:13;;;;;;;3.60;0.60;;;14.20;99.90;;;;;;6273174;22;20793;-90
2021/09/30 09:01:43;;;;;;;1.70;0.70;;;14.20;97.80;;;;;;6273743;22;21140;-91
2021/09/30 09:04:20;;;;;;;1.77;0.80;;;13.70;97.90;;;;;;6273588;22;20407;-90
2021/09/30 09:06:47;;;;;;;2.93;0.90;;;13.10;98.60;;;;;;6274407;22;20921;-90
2021/09/30 09:09:30;;;;;;;2.00;1.17;;;13.00;98.80;;;;;;6274977;22;20396;-90
2021/09/30 09:12:03;;;;;;;2.00;0.90;;;13.20;98.60;;;;;;6276531;22;20403;-90
2021/09/30 09:14:30;;;;;;;1.57;0.67;;;13.20;98.70;;;;;;6275059;22;20489;-91
2021/09/30 09:17:08;;;;;;;1.30;0.80;;;14.00;97.60;;;;;;6302937;22;20718;-91
2021/09/30 09:19:38;;;;;;;2.10;0.87;;;14.60;97.10;;;;;;6275596;22;20396;-90
2021/09/30 09:22:12;;;;;;;0.67;0.67;;;15.30;96.90;;;;;;6276325;22;20392;-91
2021/09/30 09:24:55;;;;;;;1.90;0.70;;;15.80;94.40;;;;;;6275454;22;20533;-92
2021/09/30 09:27:21;;;;;;;3.10;1.67;;;16.00;94.20;;;;;;6276076;22;20780;-90
2021/09/30 09:29:49;;;;;;;2.03;0.87;;;15.50;94.30;;;;;;6276245;22;20449;-90
2021/09/30 09:32:14;;;;;;;1.60;1.17;;;14.50;94.30;;;;;;6298794;22;20878;-90
2021/09/30 09:34:40;;;;;;;1.80;0.60;;;14.10;95.30;;;;;;6275803;22;20418;-90
2021/09/30 09:37:32;;;;;;;1.27;0.70;;;14.10;96.10;;;;;;6278211;22;20181;-90
2021/09/30 09:40:11;;;;;;;1.03;0.70;;;14.50;96.00;;;;;;6281911;22;20612;-91
2021/09/30 09:42:37;;;;;;;2.90;1.10;;;14.90;95.40;;;;;;6275783;22;20396;-92
2021/09/30 09:45:11;;;;;;;4.13;0.67;;;15.40;94.60;;;;;;6274943;22;21268;-91
2021/09/30 09:47:38;;;;;;;1.47;0.57;;;15.50;94.60;;;;;;6275550;22;20184;-91
2021/09/30 09:50:14;;;;;;;1.13;0.70;;;15.30;94.40;;;;;;6275773;22;20395;-91
2021/09/30 09:53:00;;;;;;;1.20;0.93;;;14.80;94.50;;;;;;6275182;22;20403;-91
2021/09/30 09:55:37;;;;;;;1.70;0.53;;;14.40;94.80;;;;;;6274961;22;20408;-91
2021/09/30 09:58:16;;;;;;;2.53;1.30;;;14.20;94.70;;;;;;6275993;22;20412;-91
2021/09/30 10:01:03;;;;;;;3.50;1.37;;;14.10;96.30;;;;;;6275686;22;20555;-91
2021/09/30 10:03:32;;;;;;;0.90;0.50;;;14.70;95.80;;;;;;6275660;22;20415;-91
2021/09/30 10:06:22;;;;;;;2.43;1.20;;;15.40;95.00;;;;;;6275059;22;20432;-90
2021/09/30 10:08:48;;;;;;;2.33;0.70;;;15.40;93.40;;;;;;6274640;22;20706;-91
2021/09/30 10:11:13;;;;;;;2.53;0.90;;;15.50;93.10;;;;;;6275830;22;20396;-91
2021/09/30 10:13:40;;;;;;;2.10;0.50;;;15.80;93.30;;;;;;6275437;22;20211;-91
2021/09/30 10:16:06;;;;;;;1.77;0.50;;;16.50;92.90;;;;;;6274305;22;20564;-92
2021/09/30 10:18:32;;;;;;;2.17;0.80;;;16.80;90.70;;;;;;6276144;22;20388;-92
2021/09/30 10:20:58;;;;;;;2.20;0.50;;;15.90;90.60;;;;;;6274995;22;20161;-90
2021/09/30 10:23:27;;;;;;;0.80;0.50;;;15.10;92.10;;;;;;6275546;22;20718;-91
2021/09/30 10:25:57;;;;;;;1.70;0.50;;;15.20;92.10;;;;;;6274985;22;20443;-91
2021/09/30 10:28:24;;;;;;;2.20;0.47;;;15.40;91.80;;;;;;6275039;22;20717;-91
2021/09/30 10:30:52;;;;;;;0.77;0.47;;;16.20;92.60;;;;;;6275354;22;20458;-91
2021/09/30 10:33:40;;;;;;;1.73;0.60;;;16.50;90.40;;;;;;6275250;22;20408;-91
2021/09/30 10:36:28;;;;;;;0.70;0.40;;;16.30;90.20;;;;;;6275416;22;20403;-91
2021/09/30 10:39:15;;;;;;;0.90;0.30;;;15.90;86.60;;;;;;6275138;22;20446;-91
2021/09/30 10:41:41;;;;;;;2.20;0.80;;;15.40;88.80;;;;;;6274446;22;20399;-91
2021/09/30 10:44:16;;;;;;;2.17;0.70;;;15.30;88.70;;;;;;6274682;22;20396;-90
2021/09/30 10:46:42;;;;;;;1.60;0.80;;;15.30;89.10;;;;;;6275068;22;20192;-90
2021/09/30 10:49:27;;;;;;;2.10;0.50;;;15.60;88.50;;;;;;6274543;22;20396;-90
2021/09/30 10:52:22;;;;;;;1.57;0.70;;;15.40;86.30;;;;;;6274788;22;20454;-90
2021/09/30 10:55:00;;;;;;;1.00;0.70;;;15.40;87.00;;;;;;6275549;22;20407;-90
2021/09/30 10:57:43;;;;;;;2.00;0.80;;;15.70;84.60;;;;;;6273784;22;20434;-90
2021/09/30 11:00:11;;;;;;;1.13;0.77;;;16.20;85.10;;;;;;6274597;22;20418;-90
2021/09/30 11:03:02;;;;;;;1.27;0.50;;;17.00;83.60;;;;;;6274860;22;20403;-90
2021/09/30 11:05:27;;;;;;;0.90;0.67;;;17.10;80.40;;;;;;6273986;22;20427;-90
2021/09/30 11:08:22;;;;;;;1.50;0.60;;;17.00;82.70;;;;;;6279135;22;20426;-91
2021/09/30 11:13:31;;;;;;;0.83;0.40;;;17.00;79.90;;;;;;6301154;22;20376;-89
2021/09/30 11:16:03;;;;;;;1.50;0.53;;;17.50;78.50;;;;;;6273731;22;20392;-90
2021/09/30 11:18:56;;;;;;;1.77;0.50;;;17.10;78.40;;;;;;6274249;22;20919;-90
2021/09/30 11:21:28;;;;;;;2.53;0.50;;;16.30;82.30;;;;;;6274343;22;21303;-89
2021/09/30 11:23:56;;;;;;;1.93;0.50;;;16.30;82.40;;;;;;6301634;22;20493;-90
2021/09/30 11:26:22;;;;;;;0.80;0.60;;;16.40;80.60;;;;;;6274224;22;20458;-90
2021/09/30 11:28:48;;;;;;;2.30;1.53;;;17.00;78.90;;;;;;6274180;22;20392;-90
2021/09/30 11:31:29;;;;;;;1.57;0.60;;;17.30;77.70;;;;;;6274147;22;20697;-90
2021/09/30 11:33:57;;;;;;;1.83;0.40;;;17.60;75.20;;;;;;6273157;22;20944;-90
2021/09/30 11:36:34;;;;;;;0.60;0.40;;;17.50;75.50;;;;;;6274948;22;20380;-90
2021/09/30 11:39:03;;;;;;;0.50;0.33;;;16.90;76.40;;;;;;6274128;22;20396;-89
2021/09/30 11:41:30;;;;;;;2.27;0.70;;;17.20;69.90;;;;;;6273797;22;20387;-90
2021/09/30 11:43:56;;;;;;;0.90;0.30;;;17.60;69.40;;;;;;6273862;22;20487;-90
2021/09/30 11:46:26;;;;;;;0.80;0.50;;;17.90;67.80;;;;;;6274006;22;20467;-89
2021/09/30 11:48:58;;;;;;;0.40;0.30;;;17.90;68.70;;;;;;6273835;22;20550;-88
2021/09/30 11:51:38;;;;;;;1.13;0.40;;;18.20;70.80;;;;;;6273238;22;20459;-90
2021/09/30 11:54:13;;;;;;;1.90;0.50;;;17.70;71.40;;;;;;6274644;22;20399;-90
2021/09/30 11:56:40;;;;;;;1.83;0.70;;;17.20;72.90;;;;;;6274338;22;20415;-90
2021/09/30 11:59:08;;;;;;;1.20;0.50;;;17.30;71.40;;;;;;6301922;22;20396;-90
2021/09/30 12:01:42;;;;;;;0.73;0.50;;;17.40;74.30;;;;;;6274142;22;20403;-89
2021/09/30 12:04:09;;;;;;;0.97;0.50;;;17.60;71.40;;;;;;6273462;22;20392;-88
2021/09/30 12:06:46;;;;;;;1.60;0.50;;;17.30;70.60;;;;;;6273481;22;20527;-88
2021/09/30 12:09:21;;;;;;;0.90;0.30;;;17.40;71.20;;;;;;6273862;22;20388;-88
2021/09/30 12:11:55;;;;;;;0.50;0.50;;;17.50;68.90;;;;;;6273169;22;20396;-90
2021/09/30 12:14:22;;;;;;;1.33;0.60;;;18.00;69.70;;;;;;6272861;22;20395;-90
2021/09/30 12:16:56;;;;;;;1.50;0.53;;;18.00;74.40;;;;;;6274226;22;20706;-89
2021/09/30 12:20:01;;;;;;;3.03;0.80;;;18.30;78.10;;;;;;6274389;22;20392;-89
2021/09/30 12:22:33;;;;;;;0.97;0.50;;;18.60;71.40;;;;;;6266469;22;20805;-89
2021/09/30 12:25:03;;;;;;;1.03;0.90;;;17.70;69.00;;;;;;6273316;22;20392;-90
2021/09/30 12:27:32;;;;;;;0.77;0.40;;;17.90;72.00;;;;;;6273946;22;20458;-90
2021/09/30 12:30:06;;;;;;;2.10;0.50;;;18.50;72.50;;;;;;6274062;22;20428;-89
2021/09/30 12:32:38;;;;;;;1.50;0.60;;;18.80;73.40;;;;;;6273602;22;20388;-89
2021/09/30 12:35:10;;;;;;;2.20;0.80;;;18.70;71.50;;;;;;6273975;22;20773;-90
2021/09/30 12:37:46;;;;;;;1.37;0.60;;;19.10;67.40;;;;;;6277949;22;20384;-89
2021/09/30 12:40:18;;;;;;;4.93;0.80;;;19.60;70.30;;;;;;6278527;22;20729;-89
2021/09/30 12:43:08;;;;;;;1.00;0.50;;;19.70;65.40;;;;;;6273434;22;20861;-90
2021/09/30 12:45:54;;;;;;;1.10;0.90;;;19.50;68.60;;;;;;6273679;22;20478;-90
2021/09/30 12:48:25;;;;;;;0.60;0.40;;;18.50;69.80;;;;;;6252486;22;20407;-89
2021/09/30 12:51:00;;;;;;;1.37;0.60;;;18.30;74.10;;;;;;6273846;22;20384;-90
2021/09/30 12:53:26;;;;;;;1.80;0.63;;;18.40;70.30;;;;;;6273008;22;20588;-90
2021/09/30 12:56:03;;;;;;;2.00;0.77;;;18.50;69.40;;;;;;6273231;22;20480;-89
2021/09/30 12:58:45;;;;;;;1.30;0.70;;;18.20;72.70;;;;;;6273263;22;20411;-89
2021/09/30 13:01:41;;;;;;;0.80;0.50;;;17.80;70.40;;;;;;6273762;22;20395;-89
2021/09/30 13:04:23;;;;;;;0.80;0.40;;;17.70;73.10;;;;;;6272912;22;20395;-90
2021/09/30 13:07:01;;;;;;;0.87;0.60;;;18.90;73.20;;;;;;6273780;22;20467;-90
2021/09/30 13:09:30;;;;;;;0.50;0.50;;;19.80;71.20;;;;;;6273653;22;20921;-89
2021/09/30 13:11:58;;;;;;;2.10;0.50;;;19.70;67.10;;;;;;6273533;22;20435;-90
2021/09/30 13:14:34;;;;;;;2.67;0.60;;;19.70;69.70;;;;;;6273526;22;20395;-90
2021/09/30 13:17:06;;;;;;;1.13;0.47;;;18.80;66.10;;;;;;6272842;22;20402;-90
2021/09/30 13:19:51;;;;;;;0.50;0.30;;;18.80;72.00;;;;;;6274124;22;20392;-90
2021/09/30 13:22:17;;;;;;;10.77;2.10;;;19.40;68.50;;;;;;6273181;22;20416;-90
2021/09/30 13:24:44;;;;;;;0.93;0.50;;;20.20;67.60;;;;;;6273377;22;20729;-91
2021/09/30 13:27:13;;;;;;;0.50;0.40;;;20.80;64.30;;;;;;6273166;22;20185;-90
2021/09/30 13:29:38;;;;;;;51.50;3.50;;;20.90;65.80;;;;;;6273203;22;20388;-89
2021/09/30 13:32:06;;;;;;;2.60;0.60;;;22.50;59.80;;;;;;6272744;22;20957;-90
2021/09/30 13:34:31;;;;;;;2.93;1.00;;;23.90;56.70;;;;;;6273009;22;20491;-89
2021/09/30 13:36:57;;;;;;;0.90;0.43;;;22.10;56.30;;;;;;6273320;22;20392;-89
2021/09/30 13:39:23;;;;;;;0.70;0.40;;;20.60;58.80;;;;;;6272685;22;20239;-89
2021/09/30 13:41:49;;;;;;;2.33;0.57;;;20.90;59.70;;;;;;6273627;22;20169;-90
2021/09/30 13:44:15;;;;;;;1.07;0.73;;;20.40;57.00;;;;;;6273108;22;20239;-90
2021/09/30 13:46:41;;;;;;;1.53;0.40;;;20.50;60.70;;;;;;6274094;22;20201;-90
2021/09/30 13:49:06;;;;;;;0.77;0.57;;;19.30;59.10;;;;;;6272837;22;20484;-90
2021/09/30 13:51:32;;;;;;;1.03;0.80;;;18.70;62.30;;;;;;6273432;22;20435;-90
2021/09/30 13:53:59;;;;;;;3.60;0.50;;;19.00;59.00;;;;;;6302112;22;20209;-90
2021/09/30 13:56:27;;;;;;;2.10;1.20;;;19.70;58.70;;;;;;6302350;22;20722;-89
2021/09/30 13:58:52;;;;;;;0.93;0.50;;;21.00;58.00;;;;;;6275050;22;20824;-90
2021/09/30 14:01:19;;;;;;;1.57;0.60;;;21.80;58.40;;;;;;6275363;22;20450;-90
2021/09/30 14:03:45;;;;;;;1.00;0.50;;;24.30;57.20;;;;;;6275687;22;20392;-90
2021/09/30 14:06:12;;;;;;;2.00;0.83;;;26.10;53.40;;;;;;6273881;22;20462;-90
2021/09/30 14:08:41;;;;;;;1.90;0.70;;;27.80;50.00;;;;;;6287138;22;20188;-90
2021/09/30 14:11:08;;;;;;;2.67;0.87;;;26.30;46.70;;;;;;6277122;22;20459;-90
2021/09/30 14:13:34;;;;;;;23.33;18.50;;;25.30;50.90;;;;;;6274938;22;20395;-90
2021/09/30 14:16:00;;;;;;;9.13;5.43;;;25.00;48.50;;;;;;6273930;22;20404;-90
2021/09/30 14:18:26;;;;;;;3.87;1.20;;;23.80;50.00;;;;;;6275276;22;20485;-90
2021/09/30 14:20:52;;;;;;;1.67;1.17;;;21.80;54.80;;;;;;6274601;22;20169;-90
2021/09/30 14:23:18;;;;;;;2.20;0.63;;;21.40;57.00;;;;;;6273861;22;20192;-90
2021/09/30 14:25:44;;;;;;;6.37;1.33;;;21.10;57.90;;;;;;6274321;22;20921;-89
2021/09/30 14:28:10;;;;;;;3.73;0.63;;;21.00;58.30;;;;;;6275216;22;20388;-90
2021/09/30 14:30:41;;;;;;;2.10;0.90;;;20.70;59.20;;;;;;6273699;22;20235;-90
2021/09/30 14:33:07;;;;;;;3.03;0.80;;;20.50;58.60;;;;;;6274337;22;20165;-90
2021/09/30 14:35:33;;;;;;;1.27;0.50;;;20.50;57.60;;;;;;6274080;22;20753;-91
2021/09/30 14:37:59;;;;;;;1.43;0.40;;;20.00;60.00;;;;;;6274849;22;20392;-90
2021/09/30 14:40:32;;;;;;;1.37;0.70;;;19.90;59.50;;;;;;6273634;22;20541;-90
2021/09/30 14:42:59;;;;;;;1.17;0.50;;;19.50;60.10;;;;;;6274849;22;20158;-90
2021/09/30 14:45:25;;;;;;;1.60;0.80;;;18.30;57.50;;;;;;6274188;22;20514;-90
2021/09/30 14:47:51;;;;;;;0.90;0.90;;;18.10;58.80;;;;;;6275016;22;20410;-90
2021/09/30 14:50:16;;;;;;;0.63;0.50;;;18.20;59.50;;;;;;6274259;22;20463;-90
2021/09/30 14:52:42;;;;;;;2.10;0.33;;;18.90;60.40;;;;;;6274221;22;20165;-90
2021/09/30 14:55:08;;;;;;;1.10;0.40;;;19.30;59.70;;;;;;6273612;22;20165;-90
2021/09/30 14:57:34;;;;;;;2.10;0.40;;;19.70;61.10;;;;;;6274166;22;20244;-91
2021/09/30 15:00:12;;;;;;;2.00;0.50;;;20.50;58.80;;;;;;6274850;22;20424;-90
2021/09/30 15:02:38;;;;;;;0.77;0.50;;;20.40;57.10;;;;;;6274283;22;20556;-90
2021/09/30 15:05:04;;;;;;;0.50;0.30;;;19.90;60.20;;;;;;6274562;22;20487;-89
2021/09/30 15:07:29;;;;;;;1.23;0.57;;;20.20;57.20;;;;;;6274330;22;20207;-90
2021/09/30 15:09:55;;;;;;;1.97;0.47;;;20.80;58.20;;;;;;6274632;22;20541;-89
2021/09/30 15:12:21;;;;;;;0.90;0.50;;;21.10;57.90;;;;;;6273913;22;20649;-90
2021/09/30 15:14:46;;;;;;;1.07;0.50;;;20.40;55.10;;;;;;6248841;22;20161;-90
2021/09/30 15:19:52;;;;;;;0.90;0.40;;;21.10;57.20;;;;;;6301522;22;20604;-90
2021/09/30 15:22:18;;;;;;;1.43;0.47;;;21.10;53.60;;;;;;6274375;22;20397;-90
2021/09/30 15:24:44;;;;;;;2.53;0.80;;;20.70;54.80;;;;;;6274617;22;20458;-90
2021/09/30 15:27:11;;;;;;;2.63;0.50;;;22.00;54.30;;;;;;6274086;22;20770;-90
2021/09/30 15:29:38;;;;;;;1.00;0.60;;;22.60;53.10;;;;;;6274000;22;20162;-89
2021/09/30 15:32:04;;;;;;;1.40;0.80;;;23.50;52.20;;;;;;6274793;22;20404;-90
2021/09/30 15:34:30;;;;;;;2.63;0.50;;;23.50;51.50;;;;;;6273833;22;20391;-90
2021/09/30 15:36:56;;;;;;;2.33;0.70;;;23.70;52.00;;;;;;6276705;22;20188;-90
2021/09/30 15:39:22;;;;;;;0.90;0.40;;;24.00;51.40;;;;;;6282770;22;20388;-89
2021/09/30 15:41:49;;;;;;;1.50;0.43;;;24.70;49.70;;;;;;6276520;22;20400;-90
2021/09/30 15:44:18;;;;;;;3.10;0.43;;;24.80;49.60;;;;;;6273850;22;20396;-90
2021/09/30 15:46:45;;;;;;;1.33;0.60;;;24.40;52.40;;;;;;6273000;22;20569;-90
2021/09/30 15:49:11;;;;;;;0.90;0.50;;;24.40;52.10;;;;;;6301161;22;20388;-91
2021/09/30 15:51:37;;;;;;;0.50;0.40;;;24.60;52.40;;;;;;6273909;22;20893;-90
2021/09/30 15:54:03;;;;;;;1.07;0.43;;;23.00;54.50;;;;;;6272642;22;20157;-90
2021/09/30 15:56:45;;;;;;;1.43;0.50;;;20.70;58.10;;;;;;6273930;22;20245;-90
2021/09/30 15:59:10;;;;;;;2.07;0.40;;;18.70;63.10;;;;;;6273410;22;20177;-90
2021/09/30 16:01:37;;;;;;;2.03;1.10;;;17.50;68.00;;;;;;6274465;22;20396;-89
2021/09/30 16:04:03;;;;;;;1.13;0.43;;;16.90;69.30;;;;;;6273257;22;20169;-90
2021/09/30 16:06:29;;;;;;;1.37;0.60;;;16.30;74.20;;;;;;6273414;22;20435;-90